Cedar Ridge, Arizona
Current Conditions -  °F | °C
As of 12:54 AM on Friday 24 Oct 2014 (Local Time) from KGCN Reporting Station
Haze Haze  
Wind Chill: 35°   Ceiling: Unl
Heat Index: 35°   Visibility: 2mi
Dew Point: 25°   Wind: 0mph
Humidity: 67%   Direction: NA
Pressure: 30.33"   Gusts: NA
Location:  35.8756°N, 111.412°W
Report Text: KGCN 240654Z 00000KT 2SM HZ CLR 02/M04 A3033 RMK AO2 SLP215 T00171039 402171022
Loading
Personal Weather Stations






























Interactive Weather Map
Tropical Storm Tracking
New forecast layout! Learn more

10-Day Weather Forecast

Advertisements
Track Severe Weather on mobile